Time;durP1;ratioP1;P1;durP2;ratioP2;P2;SDS_P1;SDS_P2;PMS_P1;PMS_P2;Temp;Humidity;BMP_temperature;BMP_pressure;BME280_temperature;BME280_humidity;BME280_pressure;Samples;Min_cycle;Max_cycle;Signal;HPM_P1;HPM_P2
2021/12/13 00:04:47;;;;;;;;;;;19.60;59.60;;;23.83;35.26;95510.25;5913923;19;21760;-67
2021/12/13 00:06:54;;;;;;;;;;;19.60;59.60;;;23.88;35.09;95512.81;5935562;19;20159;-66
2021/12/13 00:08:58;;;;;;;;;;;19.70;59.70;;;23.88;35.03;95510.88;5989341;19;19919;-67
2021/12/13 00:11:17;;;;;;;;;;;19.70;59.70;;;23.89;34.72;95511.69;6032309;19;20276;-67
2021/12/13 00:13:25;;;;;;;;;;;19.70;59.60;;;23.87;35.01;95517.44;6024934;19;22054;-64
2021/12/13 00:15:32;;;;;;;;;;;19.70;59.70;;;23.88;35.15;95515.53;6030840;19;19959;-67
2021/12/13 00:17:50;;;;;;;;;;;19.60;59.60;;;23.88;35.14;95515.53;6087299;19;19966;-63
2021/12/13 00:20:27;;;;;;;;;;;19.60;59.50;;;23.86;35.08;95513.13;6048605;19;19968;-67
2021/12/13 00:22:40;;;;;;;;;;;19.70;59.60;;;23.85;35.11;95511.53;6021631;19;20362;-67
2021/12/13 00:24:44;;;;;;;;;;;19.70;59.40;;;23.84;35.02;95515.38;6018253;19;20053;-64
2021/12/13 00:26:47;;;;;;;;;;;19.70;59.60;;;23.85;34.69;95516.97;6040078;19;19922;-65
2021/12/13 00:28:49;;;;;;;;;;;19.60;59.60;;;23.85;34.68;95514.25;6039366;19;19915;-64
2021/12/13 00:31:15;;;;;;;;;;;19.70;59.60;;;23.86;34.74;95512.31;6018446;19;19919;-67
2021/12/13 00:33:28;;;;;;;;;;;19.60;59.60;;;23.84;34.97;95511.84;6028764;19;20269;-67
2021/12/13 00:35:36;;;;;;;;;;;19.70;59.60;;;23.83;34.98;95507.53;6011920;19;20424;-67
2021/12/13 00:37:50;;;;;;;;;;;19.70;59.70;;;23.84;34.81;95503.69;6036343;19;19939;-66
2021/12/13 00:39:55;;;;;;;;;;;19.70;59.60;;;23.82;34.93;95498.56;6040712;19;19944;-66
2021/12/13 00:41:56;;;;;;;;;;;19.70;59.60;;;23.82;34.78;95504.00;6031621;19;19915;-64
2021/12/13 00:44:01;;;;;;;;;;;19.60;59.60;;;23.83;35.00;95508.34;6022440;19;21248;-67
2021/12/13 00:46:05;;;;;;;;;;;19.70;59.60;;;23.84;34.76;95509.13;6039055;19;19919;-66
2021/12/13 00:48:07;;;;;;;;;;;19.60;59.60;;;23.83;34.71;95508.34;6050035;19;20845;-65
2021/12/13 00:50:30;;;;;;;;;;;19.70;59.60;;;23.82;34.83;95501.28;6056810;19;19930;-66
2021/12/13 00:52:31;;;;;;;;;;;19.60;59.60;;;23.82;34.81;95506.72;6050165;19;19930;-65
2021/12/13 00:54:36;;;;;;;;;;;19.60;59.60;;;23.83;35.14;95504.81;6050465;19;19922;-65
2021/12/13 00:56:56;;;;;;;;;;;19.70;59.60;;;23.84;35.17;95503.69;6038780;19;19922;-67
2021/12/13 00:58:57;;;;;;;;;;;19.70;59.60;;;23.85;35.09;95505.28;6033544;19;20270;-65
2021/12/13 01:01:01;;;;;;;;;;;19.70;59.70;;;23.84;34.73;95503.69;6021317;19;19914;-65
2021/12/13 01:03:27;;;;;;;;;;;19.70;59.70;;;23.85;35.09;95508.00;6021554;19;20705;-67
2021/12/13 01:06:06;;;;;;;;;;;19.70;59.60;;;23.86;35.16;95507.69;6011126;19;20379;-67
2021/12/13 01:08:16;;;;;;;;;;;19.70;59.70;;;23.86;35.13;95515.06;6033404;19;19933;-66
2021/12/13 01:10:38;;;;;;;;;;;19.80;59.80;;;23.86;35.08;95515.84;6022901;19;19926;-65
2021/12/13 01:12:39;;;;;;;;;;;19.70;59.70;;;23.86;34.95;95517.78;6024079;19;19932;-64
2021/12/13 01:15:09;;;;;;;;;;;19.70;59.60;;;23.86;35.09;95515.84;6041146;19;19922;-64
2021/12/13 01:17:27;;;;;;;;;;;19.70;60.40;;;23.86;34.83;95518.56;6055151;19;19918;-67
2021/12/13 01:19:53;;;;;;;;;;;19.70;59.90;;;23.86;34.85;95524.00;6060090;19;20018;-65
2021/12/13 01:22:25;;;;;;;;;;;19.70;59.60;;;23.87;34.91;95511.19;6034981;19;19915;-67
2021/12/13 01:25:03;;;;;;;;;;;19.70;59.60;;;23.87;35.07;95520.16;6008052;19;19917;-66
2021/12/13 01:27:01;;;;;;;;;;;19.70;59.60;;;23.88;34.77;95523.69;6023218;19;20223;-66
2021/12/13 01:29:16;;;;;;;;;;;19.70;59.60;;;23.89;34.93;95520.66;6027556;19;19968;-66
2021/12/13 01:31:24;;;;;;;;;;;19.70;59.60;;;23.89;34.66;95522.56;6029307;19;20304;-66
2021/12/13 01:33:27;;;;;;;;;;;19.70;59.60;;;23.90;35.04;95522.25;5988879;19;20664;-67
2021/12/13 01:35:29;;;;;;;;;;;19.70;59.60;;;23.90;34.84;95519.53;6007897;19;20289;-67
2021/12/13 01:37:31;;;;;;;;;;;19.70;59.60;;;23.92;34.80;95530.88;6017332;19;20409;-66
2021/12/13 01:39:33;;;;;;;;;;;19.70;59.60;;;23.90;34.66;95524.97;6006817;19;19926;-67
2021/12/13 01:41:46;;;;;;;;;;;19.70;59.60;;;23.91;35.10;95525.75;6021890;19;19929;-67
2021/12/13 01:44:04;;;;;;;;;;;19.70;59.50;;;23.92;34.82;95527.38;6008354;19;19938;-66
2021/12/13 01:46:05;;;;;;;;;;;19.70;59.50;;;23.91;35.10;95534.72;6002785;19;19997;-67
2021/12/13 01:48:06;;;;;;;;;;;19.70;59.50;;;23.92;34.59;95530.09;6028561;19;19990;-67
2021/12/13 01:50:17;;;;;;;;;;;19.70;59.50;;;23.91;34.67;95532.00;6030269;19;20023;-66
2021/12/13 01:52:25;;;;;;;;;;;19.70;59.60;;;23.92;34.66;95527.38;6007161;19;20320;-65
2021/12/13 01:54:27;;;;;;;;;;;19.70;59.50;;;23.92;35.05;95532.81;6016729;19;20610;-65
2021/12/13 01:56:45;;;;;;;;;;;19.70;59.40;;;23.90;34.78;95527.69;6015964;19;19915;-66
2021/12/13 01:58:47;;;;;;;;;;;19.70;59.40;;;23.91;34.64;95526.56;6017159;19;19922;-66
2021/12/13 02:03:08;;;;;;;;;;;19.70;59.50;;;23.91;35.06;95526.56;5982010;19;19975;-66
2021/12/13 02:05:28;;;;;;;;;;;19.70;59.50;;;23.91;34.62;95523.84;6029366;19;20937;-65
2021/12/13 02:07:50;;;;;;;;;;;19.70;59.40;;;23.91;34.86;95532.00;6029123;19;19911;-67
2021/12/13 02:09:51;;;;;;;;;;;19.70;59.50;;;23.90;34.54;95541.31;6016942;19;20286;-64
2021/12/13 02:11:55;;;;;;;;;;;19.70;59.40;;;23.91;35.02;95542.91;6024111;19;21066;-66
2021/12/13 02:14:14;;;;;;;;;;;19.70;59.40;;;23.90;34.61;95545.94;6020818;19;20018;-65
2021/12/13 02:18:38;;;;;;;;;;;19.70;59.50;;;23.90;34.95;95545.94;6032248;19;20561;-65
2021/12/13 02:20:42;;;;;;;;;;;19.70;59.40;;;23.89;34.88;95545.16;6042467;19;20372;-67
2021/12/13 02:22:48;;;;;;;;;;;19.70;59.50;;;23.90;34.75;95541.31;6012197;19;21222;-66
2021/12/13 02:24:50;;;;;;;;;;;19.70;59.40;;;23.90;34.60;95544.03;6001431;19;19915;-66
2021/12/13 02:26:51;;;;;;;;;;;19.70;59.50;;;23.91;34.71;95542.09;5999232;19;20298;-67
2021/12/13 02:28:56;;;;;;;;;;;19.70;59.40;;;23.90;34.58;95544.03;6001945;19;19930;-67
2021/12/13 02:31:31;;;;;;;;;;;19.70;59.40;;;23.91;34.53;95539.38;6016481;19;20291;-67
2021/12/13 02:33:39;;;;;;;;;;;19.70;59.40;;;23.90;34.83;95544.03;6016450;19;20949;-66
2021/12/13 02:35:46;;;;;;;;;;;19.70;59.40;;;23.91;34.56;95547.56;6014272;19;19987;-68
2021/12/13 02:37:47;;;;;;;;;;;19.70;59.40;;;23.90;35.08;95546.75;6017707;19;19935;-67
2021/12/13 02:39:49;;;;;;;;;;;19.70;59.40;;;23.91;34.66;95542.91;5995039;19;19970;-67
2021/12/13 02:41:52;;;;;;;;;;;19.70;59.40;;;23.92;35.07;95547.22;6016433;19;19919;-67
2021/12/13 02:44:01;;;;;;;;;;;19.70;59.40;;;23.91;34.86;95548.34;6032148;19;19915;-66
2021/12/13 02:46:02;;;;;;;;;;;19.70;59.40;;;23.91;34.80;95539.38;5998682;19;20366;-67
2021/12/13 02:48:13;;;;;;;;;;;19.70;59.40;;;23.91;34.92;95548.34;6017550;19;20371;-67
2021/12/13 02:50:24;;;;;;;;;;;19.70;59.40;;;23.91;34.85;95551.06;6024990;19;20561;-66
2021/12/13 02:52:26;;;;;;;;;;;19.70;59.40;;;23.91;34.82;95553.78;6043884;19;19986;-65
2021/12/13 02:54:30;;;;;;;;;;;19.70;59.40;;;23.91;34.55;95548.34;5996083;19;21662;-67
2021/12/13 02:56:35;;;;;;;;;;;19.70;59.40;;;23.92;34.64;95544.50;6002749;19;20021;-66
2021/12/13 02:58:37;;;;;;;;;;;19.70;59.40;;;23.92;35.05;95546.44;5998041;19;21592;-67
2021/12/13 03:00:48;;;;;;;;;;;19.70;59.40;;;23.93;34.63;95554.28;5988991;19;21977;-65
2021/12/13 03:02:50;;;;;;;;;;;19.70;60.00;;;23.93;34.95;95548.81;5984760;19;21225;-67
2021/12/13 03:04:51;;;;;;;;;;;19.70;59.50;;;23.93;34.85;95546.09;6024639;19;19928;-68
2021/12/13 03:07:05;;;;;;;;;;;19.70;59.50;;;23.94;34.85;95553.16;5990793;19;19927;-67
2021/12/13 03:09:12;;;;;;;;;;;19.70;59.40;;;23.94;34.51;95546.91;5989027;19;19918;-67
2021/12/13 03:11:22;;;;;;;;;;;19.70;59.40;;;23.94;34.83;95549.63;5996192;19;19940;-67
2021/12/13 03:13:23;;;;;;;;;;;19.70;59.30;;;23.94;34.73;95547.69;5998036;19;20418;-67
2021/12/13 03:15:27;;;;;;;;;;;19.70;59.40;;;23.94;34.87;95547.69;6006990;19;19935;-67
2021/12/13 03:17:32;;;;;;;;;;;19.80;59.40;;;23.94;34.35;95553.16;6002096;19;20619;-67
2021/12/13 03:19:47;;;;;;;;;;;19.70;59.40;;;23.93;34.73;95546.09;6000594;19;20568;-68
2021/12/13 03:22:10;;;;;;;;;;;19.80;59.50;;;23.93;34.90;95545.31;5995182;19;19923;-67
2021/12/13 03:24:20;;;;;;;;;;;19.80;59.40;;;23.92;34.51;95551.88;6005729;19;22671;-65
2021/12/13 03:26:32;;;;;;;;;;;19.70;59.30;;;23.91;34.60;95559.25;5974520;19;19918;-67
2021/12/13 03:28:48;;;;;;;;;;;19.70;59.30;;;23.91;34.61;95553.78;5981600;19;20491;-68
2021/12/13 03:31:02;;;;;;;;;;;19.70;59.30;;;23.91;34.53;95547.56;6014369;19;19948;-63
2021/12/13 03:33:08;;;;;;;;;;;19.70;59.30;;;23.88;34.92;95549.00;6087035;19;19918;-62
2021/12/13 03:35:14;;;;;;;;;;;19.70;59.40;;;23.88;34.56;95551.72;6086874;19;20378;-62
2021/12/13 03:37:21;;;;;;;;;;;19.70;59.40;;;23.86;34.96;95548.53;6091114;19;19982;-62
2021/12/13 03:39:30;;;;;;;;;;;19.70;59.40;;;23.87;34.59;95546.59;6094611;19;19927;-62
2021/12/13 03:41:31;;;;;;;;;;;19.70;59.30;;;23.85;34.60;95544.19;6090283;19;20407;-62
2021/12/13 03:43:40;;;;;;;;;;;19.70;59.30;;;23.85;34.60;95554.28;6084854;19;19926;-62
2021/12/13 03:45:44;;;;;;;;;;;19.70;59.30;;;23.85;35.08;95546.94;6086199;19;19918;-62
2021/12/13 03:47:50;;;;;;;;;;;19.70;59.30;;;23.84;34.78;95545.31;6097780;19;19943;-62
2021/12/13 03:49:55;;;;;;;;;;;19.70;59.30;;;23.85;34.70;95546.94;6101426;19;19925;-62
2021/12/13 03:51:57;;;;;;;;;;;19.70;59.30;;;23.86;34.90;95550.44;6094731;19;19915;-61
2021/12/13 03:53:59;;;;;;;;;;;19.70;59.30;;;23.86;34.75;95545.00;6084951;19;19925;-62
2021/12/13 03:56:07;;;;;;;;;;;19.70;59.30;;;23.85;35.09;95546.94;6076078;19;20296;-62
2021/12/13 03:58:09;;;;;;;;;;;19.70;59.30;;;23.87;34.97;95549.31;6078638;19;19933;-62
2021/12/13 04:00:14;;;;;;;;;;;19.70;59.30;;;23.87;34.57;95552.84;6075616;19;20294;-62
2021/12/13 04:02:23;;;;;;;;;;;19.70;59.40;;;23.88;34.62;95548.19;6072208;19;19919;-63
2021/12/13 04:04:40;;;;;;;;;;;19.70;59.30;;;23.89;34.72;95549.78;6078494;19;20370;-62
2021/12/13 04:06:58;;;;;;;;;;;19.70;59.30;;;23.89;34.79;95549.78;6085579;19;20210;-62
2021/12/13 04:08:59;;;;;;;;;;;19.70;59.30;;;23.90;34.62;95557.63;6086086;19;19967;-61
2021/12/13 04:11:06;;;;;;;;;;;19.70;59.30;;;23.88;35.04;95549.00;6089851;19;21208;-62
2021/12/13 04:13:14;;;;;;;;;;;19.70;59.30;;;23.89;34.96;95549.78;6085464;19;19943;-62
2021/12/13 04:15:33;;;;;;;;;;;19.70;59.30;;;23.89;35.04;95549.78;6083640;19;19983;-62
2021/12/13 04:17:44;;;;;;;;;;;19.70;59.30;;;23.88;34.52;95554.44;6083221;19;20311;-62
2021/12/13 04:19:48;;;;;;;;;;;19.70;59.30;;;23.88;34.74;95554.44;6094779;19;19925;-62
2021/12/13 04:21:57;;;;;;;;;;;19.70;59.30;;;23.88;34.89;95551.72;6097682;19;19929;-61
2021/12/13 04:24:03;;;;;;;;;;;19.70;59.30;;;23.86;34.73;95559.41;6089937;19;20388;-62
2021/12/13 04:26:06;;;;;;;;;;;19.70;59.30;;;23.87;34.63;95562.94;6090689;19;20370;-61
2021/12/13 04:28:26;;;;;;;;;;;19.70;59.30;;;23.85;34.62;95563.25;6101753;19;20247;-61
2021/12/13 04:30:39;;;;;;;;;;;19.70;59.30;;;23.84;34.73;95563.59;6086573;19;19934;-62
2021/12/13 04:32:44;;;;;;;;;;;19.70;59.30;;;23.84;34.99;95561.66;6086552;19;19911;-62
2021/12/13 04:34:46;;;;;;;;;;;19.70;59.30;;;23.84;34.58;95569.03;6088293;19;19990;-62
2021/12/13 04:36:49;;;;;;;;;;;19.70;59.30;;;23.83;34.70;95565.50;6088594;19;19919;-62
2021/12/13 04:39:04;;;;;;;;;;;19.70;59.30;;;23.84;35.02;95569.03;6090488;19;20284;-62
2021/12/13 04:41:04;;;;;;;;;;;19.70;59.30;;;23.84;34.89;95569.03;6088854;19;19990;-61
2021/12/13 04:43:07;;;;;;;;;;;19.70;59.30;;;23.83;35.11;95567.44;6093903;19;19922;-62
2021/12/13 04:45:15;;;;;;;;;;;19.70;59.30;;;23.83;34.98;95565.50;6086568;19;19911;-62
2021/12/13 04:47:23;;;;;;;;;;;19.70;59.30;;;23.83;35.01;95570.16;6089356;19;19922;-61
2021/12/13 04:49:25;;;;;;;;;;;19.70;59.40;;;23.83;34.64;95573.69;6098716;19;19923;-61
2021/12/13 04:51:29;;;;;;;;;;;19.70;59.40;;;23.83;34.70;95570.16;6100561;19;19939;-61
2021/12/13 04:53:41;;;;;;;;;;;19.70;59.40;;;23.84;35.09;95582.66;6099813;19;20320;-62
2021/12/13 04:55:43;;;;;;;;;;;19.70;59.40;;;23.82;34.68;95580.25;6091899;19;19975;-60
2021/12/13 04:57:44;;;;;;;;;;;19.70;59.40;;;23.84;35.08;95585.38;6094189;19;19919;-62
2021/12/13 04:59:49;;;;;;;;;;;19.70;59.40;;;23.84;35.02;95579.91;6090898;19;19946;-62
2021/12/13 05:01:53;;;;;;;;;;;19.70;59.40;;;23.83;34.87;95584.56;6083383;19;19978;-60
2021/12/13 05:03:58;;;;;;;;;;;19.70;59.40;;;23.84;35.08;95583.44;6079266;19;20281;-62
2021/12/13 05:06:14;;;;;;;;;;;19.70;59.50;;;23.84;35.07;95580.72;6086374;19;20308;-62
2021/12/13 05:08:16;;;;;;;;;;;19.70;59.40;;;23.85;34.62;95582.31;6091893;19;19915;-62
2021/12/13 05:10:18;;;;;;;;;;;19.70;59.40;;;23.85;34.71;95587.75;6088308;19;19923;-61
2021/12/13 05:12:25;;;;;;;;;;;19.70;59.40;;;23.86;34.70;95586.66;6093869;19;19915;-62
2021/12/13 05:14:34;;;;;;;;;;;19.70;59.40;;;23.86;34.67;95583.91;6086801;19;20904;-62
2021/12/13 05:16:51;;;;;;;;;;;19.70;59.50;;;23.86;35.15;95583.91;6086065;19;20164;-62
2021/12/13 05:18:54;;;;;;;;;;;19.70;59.40;;;23.86;35.17;95583.13;6094923;19;20203;-62
2021/12/13 05:21:17;;;;;;;;;;;19.70;59.50;;;23.86;34.76;95577.69;6096594;19;19935;-62
2021/12/13 05:23:21;;;;;;;;;;;19.70;59.40;;;23.86;35.09;95578.47;6085812;19;20150;-62
2021/12/13 05:25:40;;;;;;;;;;;19.70;59.40;;;23.87;35.13;95588.25;6089391;19;19930;-62
2021/12/13 05:27:41;;;;;;;;;;;19.70;59.40;;;23.87;34.86;95584.72;6094626;19;19963;-61
2021/12/13 05:29:48;;;;;;;;;;;19.70;59.40;;;23.87;34.63;95588.25;6094430;19;19910;-62
2021/12/13 05:31:51;;;;;;;;;;;19.70;59.40;;;23.87;34.84;95592.88;6084871;19;19923;-61
2021/12/13 05:33:56;;;;;;;;;;;19.70;59.40;;;23.87;34.96;95596.41;6075653;19;19922;-61
2021/12/13 05:35:59;;;;;;;;;;;19.70;59.40;;;23.87;34.98;95590.16;6086093;19;19914;-62
2021/12/13 05:38:05;;;;;;;;;;;19.70;59.50;;;23.88;35.08;95594.50;6081686;19;19926;-65
2021/12/13 05:40:11;;;;;;;;;;;19.70;59.90;;;23.89;34.68;95598.81;6018249;19;19915;-65
2021/12/13 05:42:12;;;;;;;;;;;19.70;59.40;;;23.89;34.60;95599.63;6040254;19;19915;-65
2021/12/13 05:44:13;;;;;;;;;;;19.70;59.40;;;23.90;34.81;95600.41;6021407;19;19929;-65
2021/12/13 05:46:17;;;;;;;;;;;19.70;59.40;;;23.91;34.80;95602.00;6031766;19;21001;-66
2021/12/13 05:48:22;;;;;;;;;;;19.70;59.40;;;23.90;34.84;95597.69;6034646;19;19937;-70
2021/12/13 05:50:29;;;;;;;;;;;19.70;59.40;;;23.90;34.89;95597.69;6041555;19;20536;-65
2021/12/13 05:52:35;;;;;;;;;;;19.70;60.10;;;23.91;35.06;95604.72;6040643;19;19923;-65
2021/12/13 05:55:08;;;;;;;;;;;19.70;59.50;;;23.90;35.10;95595.75;6030810;19;19931;-65
2021/12/13 05:57:15;;;;;;;;;;;19.70;59.50;;;23.90;34.82;95603.13;6037922;19;21028;-64
2021/12/13 05:59:31;;;;;;;;;;;19.70;59.60;;;23.89;34.67;95599.63;6017090;19;19915;-65
2021/12/13 06:01:57;;;;;;;;;;;19.70;59.50;;;23.90;34.93;95598.50;6029334;19;19965;-65
2021/12/13 06:04:06;;;;;;;;;;;19.70;59.50;;;23.89;35.17;95605.06;6050377;19;19922;-65
2021/12/13 06:06:14;;;;;;;;;;;19.70;59.50;;;23.89;34.93;95599.63;6025825;19;20478;-64
2021/12/13 06:08:27;;;;;;;;;;;19.70;59.60;;;23.89;34.78;95605.06;6034348;19;20506;-64
2021/12/13 06:10:46;;;;;;;;;;;19.70;59.60;;;23.90;34.85;95600.41;6031138;19;20556;-64
2021/12/13 06:12:51;;;;;;;;;;;19.70;59.60;;;23.90;35.07;95605.84;6050486;19;19925;-64
2021/12/13 06:14:53;;;;;;;;;;;19.70;59.70;;;23.90;35.00;95608.59;6035846;19;19926;-65
2021/12/13 06:17:12;;;;;;;;;;;19.70;59.90;;;23.91;35.28;95607.47;6041459;19;19915;-65
2021/12/13 06:19:36;;;;;;;;;;;19.70;59.90;;;23.89;35.05;95615.16;6016236;19;20799;-65
2021/12/13 06:22:00;;;;;;;;;;;19.70;60.00;;;23.89;35.15;95618.66;6023896;19;20651;-65
2021/12/13 06:24:01;;;;;;;;;;;19.70;60.10;;;23.88;35.28;95619.78;6021693;19;20227;-64
2021/12/13 06:26:10;;;;;;;;;;;19.70;60.20;;;23.89;35.46;95615.16;6020806;19;19984;-64
2021/12/13 06:28:23;;;;;;;;;;;19.70;60.30;;;23.89;35.49;95618.66;6033295;19;19960;-64
2021/12/13 06:30:32;;;;;;;;;;;19.70;60.40;;;23.89;35.57;95615.94;6033411;19;19983;-64
2021/12/13 06:32:53;;;;;;;;;;;19.70;60.60;;;23.90;35.46;95616.75;6034157;19;19922;-64
2021/12/13 06:34:54;;;;;;;;;;;19.70;60.60;;;23.90;35.37;95614.81;6059002;19;19923;-64
2021/12/13 06:36:55;;;;;;;;;;;19.70;60.70;;;23.90;35.19;95614.81;6044831;19;20251;-64
2021/12/13 06:39:01;;;;;;;;;;;19.70;60.70;;;23.90;35.57;95611.31;6054211;19;19921;-64
2021/12/13 06:41:25;;;;;;;;;;;19.70;60.60;;;23.90;35.08;95616.75;6044088;19;19971;-64
2021/12/13 06:43:48;;;;;;;;;;;19.80;60.70;;;23.89;35.54;95617.88;6053860;19;20415;-64
2021/12/13 06:45:49;;;;;;;;;;;19.70;60.50;;;23.88;35.13;95622.53;6044045;19;19911;-64
2021/12/13 06:47:52;;;;;;;;;;;19.70;60.50;;;23.87;35.15;95612.75;6053478;19;20028;-64
2021/12/13 06:49:58;;;;;;;;;;;19.70;60.50;;;23.88;35.40;95622.53;6043861;19;19919;-64
2021/12/13 06:52:05;;;;;;;;;;;19.70;60.40;;;23.89;35.18;95621.41;6040304;19;20356;-64
2021/12/13 06:54:12;;;;;;;;;;;19.70;60.50;;;23.89;35.43;95624.13;6043077;19;20271;-64
2021/12/13 06:56:24;;;;;;;;;;;19.70;60.50;;;23.91;35.26;95626.53;6032294;19;20358;-64
2021/12/13 06:58:28;;;;;;;;;;;19.70;60.50;;;23.90;35.38;95620.28;6025724;19;20601;-64
2021/12/13 07:00:32;;;;;;;;;;;19.70;60.50;;;23.92;35.52;95630.84;6033035;19;20265;-64
2021/12/13 07:02:35;;;;;;;;;;;19.70;60.40;;;23.91;35.13;95624.59;6037622;19;20399;-64
2021/12/13 07:04:46;;;;;;;;;;;19.70;60.50;;;23.91;35.35;95624.59;6029638;19;20577;-64
2021/12/13 07:06:47;;;;;;;;;;;19.80;60.60;;;23.92;35.23;95625.41;6054012;19;19959;-64
2021/12/13 07:09:04;;;;;;;;;;;19.70;60.50;;;23.91;35.27;95621.88;6061669;19;20006;-64
2021/12/13 07:11:17;;;;;;;;;;;19.80;60.60;;;23.91;35.52;95630.03;6028329;19;21239;-64
2021/12/13 07:13:38;;;;;;;;;;;19.70;60.50;;;23.91;35.18;95621.88;6051733;19;20320;-64
2021/12/13 07:15:42;;;;;;;;;;;19.80;60.50;;;23.91;35.02;95624.59;6046820;19;19972;-64
2021/12/13 07:17:43;;;;;;;;;;;19.80;60.50;;;23.91;35.47;95629.25;6046645;19;20203;-64
2021/12/13 07:19:49;;;;;;;;;;;19.80;60.40;;;23.91;34.97;95629.25;6055890;19;19926;-64
2021/12/13 07:21:58;;;;;;;;;;;19.80;60.40;;;23.91;34.92;95635.50;6040223;19;19923;-65
2021/12/13 07:24:12;;;;;;;;;;;19.70;60.20;;;23.91;35.27;95624.59;6040857;19;19919;-65
2021/12/13 07:26:12;;;;;;;;;;;19.80;60.40;;;23.91;35.05;95632.75;6029055;19;19930;-64
2021/12/13 07:28:35;;;;;;;;;;;19.70;60.10;;;23.91;34.93;95629.25;6029201;19;20793;-65
2021/12/13 07:30:38;;;;;;;;;;;19.70;60.10;;;23.91;34.91;95630.03;6044918;19;20413;-65
2021/12/13 07:32:49;;;;;;;;;;;19.70;60.00;;;23.90;35.00;95633.88;6058070;19;20489;-65
2021/12/13 07:34:52;;;;;;;;;;;19.70;60.70;;;23.89;34.90;95628.75;6060793;19;20973;-65
2021/12/13 07:36:55;;;;;;;;;;;19.70;60.00;;;23.89;35.40;95639.66;6058310;19;19952;-65
2021/12/13 07:39:01;;;;;;;;;;;19.70;59.90;;;23.89;34.88;95643.19;6043044;19;20407;-65
2021/12/13 07:41:06;;;;;;;;;;;19.70;60.00;;;23.88;35.25;95647.03;6052592;19;20291;-64
2021/12/13 07:43:23;;;;;;;;;;;19.70;59.90;;;23.88;34.80;95652.47;6044676;19;20011;-64
2021/12/13 07:45:34;;;;;;;;;;;19.70;59.80;;;23.89;34.86;95653.28;6052721;19;20398;-64
2021/12/13 07:47:35;;;;;;;;;;;19.70;59.90;;;23.90;35.05;95654.88;6054926;19;19918;-64
2021/12/13 07:49:42;;;;;;;;;;;19.70;59.80;;;23.91;34.86;95664.66;6062060;19;19919;-64
2021/12/13 07:51:50;;;;;;;;;;;19.70;59.80;;;23.92;34.71;95663.53;6053421;19;19923;-65
2021/12/13 07:53:53;;;;;;;;;;;19.70;59.70;;;23.93;34.93;95660.47;6043812;19;19915;-64
2021/12/13 07:56:03;;;;;;;;;;;19.70;59.70;;;23.94;34.71;95666.72;6044431;19;20008;-64
2021/12/13 07:58:04;;;;;;;;;;;19.80;59.70;;;23.94;34.85;95662.06;6052803;19;19915;-64
2021/12/13 08:00:21;;;;;;;;;;;19.80;59.70;;;23.96;35.03;95665.28;6041496;19;19919;-64
2021/12/13 08:02:30;;;;;;;;;;;19.80;59.60;;;23.97;34.58;95666.06;6047295;19;19919;-64
2021/12/13 08:04:52;;;;;;;;;;;19.70;59.50;;;23.94;34.77;95670.25;6063965;19;20251;-64
2021/12/13 08:07:21;;;;;;;;;;;19.80;59.60;;;23.94;34.64;95667.53;6041249;19;19946;-65
2021/12/13 08:09:25;;;;;;;;;;;19.80;59.60;;;23.95;34.59;95680.03;6045028;19;19914;-64
2021/12/13 08:11:38;;;;;;;;;;;19.80;59.60;;;23.94;35.04;95678.41;6046044;19;20356;-64
2021/12/13 08:13:39;;;;;;;;;;;19.80;59.70;;;23.94;35.02;95683.88;6043071;19;19919;-63
2021/12/13 08:15:52;;;;;;;;;;;19.80;59.60;;;23.94;34.90;95678.41;6053413;19;19935;-64
2021/12/13 08:18:00;;;;;;;;;;;19.80;59.60;;;23.94;34.74;95677.63;6050394;19;19927;-64
2021/12/13 08:20:07;;;;;;;;;;;19.80;59.60;;;23.94;35.11;95683.88;6043960;19;19943;-64
2021/12/13 08:22:14;;;;;;;;;;;19.80;59.60;;;23.95;35.09;95687.38;6040876;19;19922;-64
2021/12/13 08:24:27;;;;;;;;;;;19.80;59.60;;;23.95;35.12;95696.34;6058641;19;20399;-64
2021/12/13 08:26:32;;;;;;;;;;;19.80;59.60;;;23.95;34.70;95693.63;6056023;19;19982;-64
2021/12/13 08:28:39;;;;;;;;;;;19.80;59.60;;;23.96;34.90;95695.22;6039867;19;19935;-63
2021/12/13 08:30:54;;;;;;;;;;;19.80;59.60;;;23.96;34.59;95697.16;6050928;19;20380;-64
2021/12/13 08:32:58;;;;;;;;;;;19.80;59.60;;;23.95;35.13;95685.47;6057966;19;19974;-65
2021/12/13 08:35:01;;;;;;;;;;;19.80;59.50;;;23.95;35.00;95688.19;6041420;19;19918;-64
2021/12/13 08:37:17;;;;;;;;;;;19.80;59.50;;;23.96;34.59;95691.72;6045059;19;19953;-64
2021/12/13 08:39:25;;;;;;;;;;;19.80;59.50;;;23.95;35.07;95682.75;6059593;19;19923;-63
2021/12/13 08:41:48;;;;;;;;;;;19.80;59.60;;;23.96;35.09;95689.78;6050430;19;20546;-64
2021/12/13 08:43:54;;;;;;;;;;;19.80;59.50;;;23.96;35.05;95692.50;6053809;19;20515;-64
2021/12/13 08:45:55;;;;;;;;;;;19.80;59.50;;;23.96;34.73;95697.97;6042864;19;20534;-65
2021/12/13 08:48:03;;;;;;;;;;;19.80;59.50;;;23.94;34.62;95692.03;6058203;19;19943;-64
2021/12/13 08:50:12;;;;;;;;;;;19.80;59.40;;;23.96;34.99;95689.00;6063163;19;19914;-64
2021/12/13 08:52:13;;;;;;;;;;;19.80;59.40;;;23.95;35.04;95690.91;6057547;19;20391;-64
2021/12/13 08:54:15;;;;;;;;;;;19.80;59.50;;;23.95;34.51;95693.63;6065835;19;19918;-63
2021/12/13 08:56:20;;;;;;;;;;;19.80;59.40;;;23.94;34.77;95697.47;6050890;19;19918;-64
2021/12/13 08:58:22;;;;;;;;;;;19.80;59.40;;;23.95;34.79;95701.81;6060531;19;21202;-64
2021/12/13 09:00:48;;;;;;;;;;;19.80;59.40;;;23.94;34.57;95705.66;6062729;19;20558;-64
2021/12/13 09:03:11;;;;;;;;;;;19.80;59.50;;;23.94;34.58;95708.38;6059909;19;20328;-65
2021/12/13 09:05:25;;;;;;;;;;;19.80;59.40;;;23.94;34.84;95713.03;6057076;19;20061;-65
2021/12/13 09:07:26;;;;;;;;;;;19.80;59.40;;;23.94;34.83;95710.28;6039587;19;19915;-65
2021/12/13 09:09:27;;;;;;;;;;;19.80;59.40;;;23.94;34.94;95705.66;6046609;19;20350;-64
2021/12/13 09:11:33;;;;;;;;;;;19.80;59.30;;;23.95;35.01;95696.34;6061265;19;19960;-64
2021/12/13 09:13:44;;;;;;;;;;;19.70;59.20;;;23.95;34.53;95699.09;6060490;19;19926;-65
2021/12/13 09:15:47;;;;;;;;;;;19.80;59.40;;;23.94;34.74;95696.69;6053589;19;21682;-65
2021/12/13 09:17:50;;;;;;;;;;;19.80;59.40;;;23.95;34.82;95707.25;6060239;19;19935;-64
2021/12/13 09:20:20;;;;;;;;;;;19.80;59.30;;;23.95;34.92;95701.00;6060443;19;20391;-64
2021/12/13 09:22:28;;;;;;;;;;;19.80;59.40;;;23.94;34.94;95705.66;6053780;19;19930;-64
2021/12/13 09:24:51;;;;;;;;;;;19.80;59.30;;;23.94;34.73;95704.84;6066255;19;20493;-64
2021/12/13 09:26:52;;;;;;;;;;;19.80;59.30;;;23.95;34.56;95707.25;6061628;19;19951;-64
2021/12/13 09:29:02;;;;;;;;;;;19.80;59.30;;;23.95;34.71;95707.25;6058214;19;19963;-64
2021/12/13 09:31:14;;;;;;;;;;;19.80;59.30;;;23.95;34.80;95703.72;6053361;19;20477;-64
2021/12/13 09:33:17;;;;;;;;;;;19.80;59.30;;;23.95;34.88;95712.69;6067649;19;20346;-64
2021/12/13 09:35:23;;;;;;;;;;;19.80;59.30;;;23.96;34.91;95711.56;6066507;19;19923;-64
2021/12/13 09:37:33;;;;;;;;;;;19.80;59.30;;;23.96;34.95;95713.50;6068649;19;19922;-64
2021/12/13 09:39:34;;;;;;;;;;;19.80;59.30;;;23.95;34.95;95715.41;6064981;19;19915;-64
2021/12/13 09:41:53;;;;;;;;;;;19.80;59.20;;;23.96;34.49;95700.69;6070192;19;19918;-64
2021/12/13 09:44:03;;;;;;;;;;;19.80;59.20;;;23.96;34.70;95706.13;6061150;19;19915;-65
2021/12/13 09:46:06;;;;;;;;;;;19.80;59.20;;;23.97;34.44;95715.09;6058497;19;20509;-64
2021/12/13 09:48:22;;;;;;;;;;;19.80;59.90;;;23.97;34.76;95707.72;6070301;19;20443;-64
2021/12/13 09:50:29;;;;;;;;;;;19.80;59.20;;;23.97;34.59;95706.94;6059313;19;19923;-64
2021/12/13 09:52:37;;;;;;;;;;;19.80;59.20;;;23.96;34.82;95708.84;6057998;19;20002;-64
2021/12/13 09:54:44;;;;;;;;;;;19.80;59.20;;;23.98;34.47;95703.09;6059629;19;19932;-64
2021/12/13 09:56:49;;;;;;;;;;;19.80;59.20;;;23.98;34.88;95703.09;6062620;19;20760;-64
2021/12/13 09:58:59;;;;;;;;;;;19.80;59.20;;;23.97;34.93;95702.28;6062269;19;19975;-63
2021/12/13 10:01:08;;;;;;;;;;;19.80;59.20;;;23.98;34.93;95695.72;6065881;19;19922;-64